createdAt,value
2022-09-07T00:01:08.918Z,1.23
2022-09-07T00:06:12.776Z,0.90
2022-09-07T00:11:17.941Z,1.00
2022-09-07T00:16:29.214Z,1.00
2022-09-07T00:21:31.990Z,0.93
2022-09-07T00:26:33.995Z,1.13
2022-09-07T00:31:36.151Z,1.30
2022-09-07T00:36:38.320Z,0.90
2022-09-07T00:41:40.337Z,1.20
2022-09-07T00:46:43.645Z,1.52
2022-09-07T00:51:58.425Z,1.10
2022-09-07T00:57:00.939Z,1.00
2022-09-07T01:02:03.100Z,1.38
2022-09-07T01:07:06.004Z,0.93
2022-09-07T01:12:08.792Z,1.20
2022-09-07T01:17:15.978Z,1.20
2022-09-07T01:22:48.865Z,1.30
2022-09-07T01:28:19.220Z,1.10
2022-09-07T01:33:44.603Z,1.10
2022-09-07T01:38:52.686Z,0.98
2022-09-07T01:44:16.211Z,1.35
2022-09-07T01:49:23.291Z,0.90
2022-09-07T01:54:32.919Z,1.00
2022-09-07T02:00:05.530Z,0.70
2022-09-07T02:10:50.837Z,0.90
2022-09-07T02:16:11.149Z,0.90
2022-09-07T02:21:17.867Z,1.10
2022-09-07T02:26:24.176Z,0.70
2022-09-07T02:31:26.420Z,0.95
2022-09-07T02:36:32.444Z,1.05
2022-09-07T02:41:40.617Z,1.38
2022-09-07T02:47:09.765Z,1.20
2022-09-07T02:53:00.853Z,1.00
2022-09-07T02:58:24.648Z,0.80
2022-09-07T03:04:08.243Z,0.90
2022-09-07T03:09:20.944Z,1.15
2022-09-07T03:14:26.136Z,1.20
2022-09-07T03:19:28.295Z,1.00
2022-09-07T03:24:30.452Z,0.82
2022-09-07T03:29:32.525Z,1.08
2022-09-07T03:34:35.706Z,0.98
2022-09-07T03:39:37.694Z,1.08
2022-09-07T03:44:39.678Z,1.00
2022-09-07T03:49:41.663Z,1.05
2022-09-07T03:54:44.006Z,0.77
2022-09-07T03:59:47.125Z,1.00
2022-09-07T04:04:49.193Z,0.90
2022-09-07T04:09:54.309Z,1.10
2022-09-07T04:14:56.348Z,1.13
2022-09-07T04:19:58.441Z,0.88
2022-09-07T04:25:00.493Z,1.40
2022-09-07T04:30:02.558Z,0.75
2022-09-07T04:35:04.970Z,0.90
2022-09-07T04:40:07.636Z,0.90
2022-09-07T04:45:10.005Z,0.88
2022-09-07T04:50:12.010Z,0.90
2022-09-07T04:55:13.966Z,0.80
2022-09-07T05:00:16.552Z,1.10
2022-09-07T05:05:18.678Z,0.98
2022-09-07T05:10:20.676Z,0.93
2022-09-07T05:15:22.864Z,0.63
2022-09-07T05:20:25.915Z,1.20
2022-09-07T05:35:59.791Z,1.20
2022-09-07T05:41:05.295Z,0.93
2022-09-07T05:46:07.827Z,1.08
2022-09-07T05:51:10.552Z,1.05
2022-09-07T05:56:12.966Z,1.10
2022-09-07T06:01:15.687Z,0.90
2022-09-07T06:06:21.800Z,1.00
2022-09-07T06:11:25.675Z,0.90
2022-09-07T06:16:27.702Z,1.02
2022-09-07T06:21:29.737Z,1.17
2022-09-07T06:26:32.447Z,1.08
2022-09-07T06:31:34.666Z,1.55
2022-09-07T06:36:36.973Z,3.03
2022-09-07T06:47:05.484Z,3.13
2022-09-07T06:52:07.434Z,2.75
2022-09-07T06:57:09.909Z,2.50
2022-09-07T07:02:15.172Z,2.00
2022-09-07T07:07:17.553Z,3.00
2022-09-07T07:17:20.295Z,3.10
2022-09-07T07:22:46.067Z,3.13
2022-09-07T07:27:48.322Z,2.95
2022-09-07T07:32:50.295Z,2.38
2022-09-07T07:37:53.275Z,2.30
2022-09-07T07:43:15.125Z,2.42
2022-09-07T07:48:17.156Z,2.38
2022-09-07T07:58:45.578Z,2.60
2022-09-07T08:03:47.807Z,2.10
2022-09-07T08:08:49.857Z,1.98
2022-09-07T08:13:52.327Z,1.90
2022-09-07T08:18:54.390Z,2.03
2022-09-07T08:40:08.120Z,1.65
2022-09-07T08:45:34.598Z,1.55
2022-09-07T08:50:51.697Z,1.80
2022-09-07T08:56:01.032Z,2.13
2022-09-07T09:06:55.927Z,1.80
2022-09-07T09:12:25.655Z,1.65
2022-09-07T09:18:00.664Z,1.75
2022-09-07T09:23:12.563Z,1.38
2022-09-07T09:28:14.748Z,2.08
2022-09-07T09:33:18.801Z,1.70
2022-09-07T09:38:35.531Z,1.63
2022-09-07T09:43:44.217Z,1.30
2022-09-07T09:48:55.186Z,1.80
2022-09-07T09:54:06.275Z,1.38
2022-09-07T10:04:45.932Z,1.52
2022-09-07T10:09:53.326Z,1.30
2022-09-07T10:14:56.937Z,1.40
2022-09-07T10:20:17.120Z,1.42
2022-09-07T10:25:36.932Z,1.40
2022-09-07T10:30:46.428Z,1.33
2022-09-07T10:36:04.138Z,1.30
2022-09-07T10:41:10.251Z,1.38
2022-09-07T10:57:09.559Z,1.60
2022-09-07T11:02:24.847Z,1.20
2022-09-07T11:08:08.171Z,1.60
2022-09-07T11:13:16.467Z,1.50
2022-09-07T11:18:30.434Z,1.40
2022-09-07T11:23:44.311Z,1.75
2022-09-07T11:28:47.134Z,1.67
2022-09-07T11:39:36.529Z,1.73
2022-09-07T11:44:48.841Z,1.67
2022-09-07T11:49:59.300Z,1.48
2022-09-07T11:55:15.255Z,1.85
2022-09-07T12:00:47.640Z,1.60
2022-09-07T12:06:16.172Z,1.50
2022-09-07T12:11:32.287Z,1.77
2022-09-07T12:17:18.974Z,1.42
2022-09-07T12:22:22.679Z,1.33
2022-09-07T12:27:25.631Z,1.65
2022-09-07T12:32:58.172Z,1.70
2022-09-07T12:38:01.829Z,1.48
2022-09-07T12:43:13.289Z,1.45
2022-09-07T12:48:15.439Z,1.50
2022-09-07T12:53:43.640Z,1.30
2022-09-07T12:59:08.101Z,1.55
2022-09-07T13:04:27.380Z,1.90
2022-09-07T13:09:41.455Z,1.77
2022-09-07T13:14:52.133Z,1.88
2022-09-07T13:19:54.268Z,1.63
2022-09-07T13:25:26.556Z,1.83
2022-09-07T13:30:34.902Z,1.80
2022-09-07T13:35:37.301Z,1.75
2022-09-07T13:40:45.567Z,1.77
2022-09-07T13:45:53.777Z,1.92
2022-09-07T13:50:58.761Z,2.50
2022-09-07T13:56:24.542Z,5.80
2022-09-07T14:01:29.201Z,3.78
2022-09-07T14:06:34.203Z,3.33
2022-09-07T14:11:36.152Z,2.55
2022-09-07T14:16:38.749Z,2.45
2022-09-07T14:21:40.932Z,2.30
2022-09-07T14:26:51.220Z,1.85
2022-09-07T14:31:54.429Z,1.50
2022-09-07T14:37:01.456Z,1.70
2022-09-07T14:42:04.705Z,1.92
2022-09-07T14:52:42.310Z,1.58
2022-09-07T14:57:46.083Z,1.65
2022-09-07T15:02:48.415Z,1.83
2022-09-07T15:08:01.867Z,1.23
2022-09-07T15:13:06.511Z,1.70
2022-09-07T15:18:45.694Z,2.00
2022-09-07T15:29:10.731Z,1.85
2022-09-07T15:34:18.877Z,1.60
2022-09-07T15:39:26.852Z,1.42
2022-09-07T15:44:29.089Z,2.13
2022-09-07T15:49:31.079Z,1.52
2022-09-07T15:54:35.014Z,1.80
2022-09-07T15:59:39.007Z,1.55
2022-09-07T16:04:41.439Z,1.83
2022-09-07T16:09:43.684Z,1.80
2022-09-07T16:14:45.795Z,1.65
2022-09-07T16:19:47.726Z,1.58
2022-09-07T16:24:49.873Z,2.00
2022-09-07T16:29:51.847Z,1.83
2022-09-07T16:34:53.848Z,2.80
2022-09-07T16:39:56.835Z,2.47
2022-09-07T16:50:20.751Z,1.65
2022-09-07T16:55:22.940Z,1.83
2022-09-07T17:00:24.955Z,1.73
2022-09-07T17:05:27.051Z,1.30
2022-09-07T17:10:29.028Z,1.83
2022-09-07T17:15:34.005Z,1.90
2022-09-07T17:20:36.013Z,1.63
2022-09-07T17:25:38.175Z,1.65
2022-09-07T17:30:40.293Z,1.52
2022-09-07T17:35:42.317Z,2.05
2022-09-07T17:40:44.393Z,1.65
2022-09-07T17:45:46.482Z,1.48
2022-09-07T17:50:48.619Z,1.85
2022-09-07T17:55:50.583Z,1.65
2022-09-07T18:00:53.406Z,2.30
2022-09-07T18:05:56.122Z,1.67
2022-09-07T18:16:34.877Z,1.90
2022-09-07T18:21:38.155Z,1.98
2022-09-07T18:26:40.280Z,2.05
2022-09-07T18:31:42.517Z,2.00
2022-09-07T18:36:44.573Z,2.13
2022-09-07T18:41:46.617Z,1.83
2022-09-07T18:46:48.668Z,2.17
2022-09-07T18:57:13.171Z,2.42
2022-09-07T19:02:15.345Z,1.75
2022-09-07T19:07:17.468Z,2.10
2022-09-07T19:12:20.096Z,2.42
2022-09-07T19:17:22.185Z,1.73
2022-09-07T19:22:24.219Z,1.83
2022-09-07T19:27:27.319Z,1.70
2022-09-07T19:32:29.488Z,1.80
2022-09-07T19:37:32.911Z,1.98
2022-09-07T19:42:34.968Z,1.73
2022-09-07T19:47:37.036Z,1.77
2022-09-07T19:52:39.062Z,1.98
2022-09-07T19:57:45.108Z,1.70
2022-09-07T20:02:49.670Z,1.83
2022-09-07T20:07:51.931Z,1.75
2022-09-07T20:12:54.065Z,1.75
2022-09-07T20:17:56.055Z,1.55
2022-09-07T20:22:58.188Z,1.42
2022-09-07T20:28:00.419Z,1.80
2022-09-07T20:33:02.461Z,1.90
2022-09-07T20:38:04.621Z,1.83
2022-09-07T20:43:06.656Z,1.40
2022-09-07T20:48:09.054Z,2.00
2022-09-07T20:53:11.039Z,1.55
2022-09-07T20:58:13.143Z,1.67
2022-09-07T21:03:15.166Z,1.75
2022-09-07T21:08:17.595Z,1.83
2022-09-07T21:13:19.696Z,1.90
2022-09-07T21:18:21.812Z,2.10
2022-09-07T21:23:24.708Z,1.63
2022-09-07T21:28:27.786Z,1.95
2022-09-07T21:33:31.209Z,1.88
2022-09-07T21:38:34.568Z,1.98
2022-09-07T21:43:36.912Z,1.63
2022-09-07T21:48:39.667Z,1.50
2022-09-07T21:53:42.605Z,1.70
2022-09-07T21:58:44.962Z,1.50
2022-09-07T22:03:48.519Z,1.50
2022-09-07T22:08:51.038Z,1.80
2022-09-07T22:13:58.208Z,1.60
2022-09-07T22:19:00.765Z,1.65
2022-09-07T22:24:06.199Z,1.45
2022-09-07T22:29:11.214Z,1.48
2022-09-07T22:34:13.265Z,1.60
2022-09-07T22:39:17.890Z,1.52
2022-09-07T22:44:20.086Z,1.67
2022-09-07T22:49:22.202Z,1.60
2022-09-07T22:54:24.282Z,1.40
2022-09-07T22:59:26.891Z,1.52
2022-09-07T23:04:31.743Z,1.88
2022-09-07T23:09:34.055Z,1.40
2022-09-07T23:14:36.215Z,1.40
2022-09-07T23:19:38.287Z,1.38
2022-09-07T23:24:41.778Z,1.30
2022-09-07T23:29:43.774Z,1.48
2022-09-07T23:34:45.741Z,1.35
2022-09-07T23:39:47.720Z,1.63
2022-09-07T23:44:49.703Z,1.50
2022-09-07T23:49:51.718Z,1.77
2022-09-07T23:54:53.961Z,1.27
2022-09-07T23:59:56.050Z,1.50
